Time;durP1;ratioP1;P1;durP2;ratioP2;P2;SDS_P1;SDS_P2;PMS_P1;PMS_P2;Temp;Humidity;BMP_temperature;BMP_pressure;BME280_temperature;BME280_humidity;BME280_pressure;Samples;Min_cycle;Max_cycle;Signal;HPM_P1;HPM_P2
2022/12/17 13:06:47;;;;;;;49.87;26.30;;;;;;;2.60;47.50;98277.22;5052056;28;20453;-69
2022/12/17 13:09:25;;;;;;;52.40;27.13;;;;;;;2.76;46.82;98273.88;5048723;28;20466;-69
2022/12/17 13:12:02;;;;;;;50.07;27.57;;;;;;;2.45;47.54;98270.19;5047171;28;20421;-70
2022/12/17 13:14:29;;;;;;;52.47;26.70;;;;;;;2.34;47.87;98264.72;5051358;28;20516;-70
2022/12/17 13:17:27;;;;;;;55.43;29.10;;;;;;;2.32;47.48;98263.94;5022933;28;20449;-70
2022/12/17 13:19:56;;;;;;;60.00;28.63;;;;;;;2.02;48.43;98267.13;5050552;28;20421;-69
2022/12/17 13:22:21;;;;;;;55.50;28.73;;;;;;;1.98;48.59;98263.81;5055987;28;20460;-70
2022/12/17 13:24:49;;;;;;;51.60;29.03;;;;;;;1.76;49.28;98269.16;5058905;28;20517;-70
2022/12/17 13:27:33;;;;;;;53.50;28.07;;;;;;;1.83;48.98;98271.38;5054421;28;20272;-71
2022/12/17 13:30:17;;;;;;;59.00;29.27;;;;;;;1.94;48.63;98270.88;5057096;28;20418;-70
2022/12/17 13:32:58;;;;;;;57.77;29.37;;;;;;;1.88;49.16;98273.78;5047873;28;20445;-70
2022/12/17 13:36:02;;;;;;;54.10;28.50;;;;;;;1.82;48.54;98272.31;5059780;28;20508;-70
2022/12/17 13:38:50;;;;;;;58.97;28.33;;;;;;;1.72;48.48;98270.19;5048488;28;20429;-70
2022/12/17 13:41:18;;;;;;;61.07;31.07;;;;;;;1.75;49.48;98272.66;5049180;28;20483;-70
2022/12/17 13:43:58;;;;;;;60.13;30.80;;;;;;;1.75;49.04;98263.13;5050011;28;21103;-70
2022/12/17 13:46:24;;;;;;;66.17;31.87;;;;;;;1.84;48.53;98265.28;5053902;28;20429;-71
2022/12/17 13:49:01;;;;;;;60.47;32.30;;;;;;;1.75;49.24;98264.91;5051497;28;20459;-68
2022/12/17 13:51:30;;;;;;;63.70;32.30;;;;;;;1.60;49.28;98272.44;5050963;28;20432;-69
2022/12/17 13:54:00;;;;;;;62.53;32.90;;;;;;;1.40;50.22;98268.19;5051290;28;21019;-69
2022/12/17 13:56:36;;;;;;;64.83;32.17;;;;;;;1.45;50.77;98270.53;5052394;28;20845;-69
2022/12/17 13:59:03;;;;;;;57.50;31.80;;;;;;;1.35;50.70;98273.56;5048244;28;20528;-69
2022/12/17 14:01:30;;;;;;;64.73;33.17;;;;;;;1.55;50.33;98276.97;5050868;28;20461;-69
2022/12/17 14:03:57;;;;;;;71.70;34.80;;;;;;;1.49;49.61;98285.00;5051125;28;20422;-70
2022/12/17 14:06:34;;;;;;;63.30;32.83;;;;;;;1.42;50.67;98284.44;5049472;28;20429;-69
2022/12/17 14:09:00;;;;;;;70.80;33.57;;;;;;;1.21;50.71;98291.41;5057530;28;20439;-72
2022/12/17 14:14:27;;;;;;;64.57;33.87;;;;;;;1.36;50.34;98287.28;5049691;28;20204;-70
2022/12/17 14:16:53;;;;;;;75.17;35.00;;;;;;;1.26;50.53;98296.34;5057789;28;20452;-70
2022/12/17 14:19:19;;;;;;;69.50;33.23;;;;;;;0.99;51.36;98302.66;5050955;28;20433;-71
2022/12/17 14:21:45;;;;;;;70.10;34.83;;;;;;;1.21;50.77;98301.72;5052313;28;20465;-70
2022/12/17 14:24:12;;;;;;;63.90;33.43;;;;;;;1.25;49.88;98292.09;5059015;28;20674;-70
2022/12/17 14:26:51;;;;;;;69.60;36.47;;;;;;;1.07;50.30;98303.16;5051579;28;20194;-69
2022/12/17 14:29:25;;;;;;;72.30;34.70;;;;;;;0.94;50.54;98304.59;5052984;28;20780;-70
2022/12/17 14:31:53;;;;;;;63.03;34.70;;;;;;;0.74;51.04;98314.03;5052354;28;20416;-69
2022/12/17 14:34:19;;;;;;;70.83;33.20;;;;;;;0.72;51.63;98310.66;5062595;28;20439;-68
2022/12/17 14:36:45;;;;;;;65.37;34.10;;;;;;;0.85;50.96;98315.31;5059004;28;20434;-71
2022/12/17 14:39:26;;;;;;;72.53;34.10;;;;;;;0.61;51.17;98315.41;5054814;28;20197;-69
2022/12/17 14:44:53;;;;;;;66.03;32.90;;;;;;;0.93;50.68;98320.97;5048715;28;20558;-69
2022/12/17 14:47:22;;;;;;;64.43;33.50;;;;;;;0.81;50.74;98319.78;5054810;28;20467;-69
2022/12/17 14:50:00;;;;;;;71.23;35.30;;;;;;;0.81;50.38;98324.06;5053206;28;20472;-71
2022/12/17 14:52:34;;;;;;;64.50;33.90;;;;;;;0.55;51.21;98331.13;5057380;28;20422;-70
2022/12/17 14:55:00;;;;;;;75.40;36.60;;;;;;;0.48;50.69;98322.81;5054960;28;20428;-70
2022/12/17 14:57:26;;;;;;;73.60;35.10;;;;;;;0.55;51.19;98328.56;5060819;28;20452;-70
2022/12/17 14:59:51;;;;;;;76.23;38.47;;;;;;;0.47;50.97;98321.13;5059000;28;20433;-70
2022/12/17 15:02:25;;;;;;;78.80;37.20;;;;;;;0.26;51.75;98320.22;5048344;28;20464;-70
2022/12/17 15:04:52;;;;;;;71.47;35.70;;;;;;;0.48;51.53;98332.28;5046038;28;20273;-71
2022/12/17 15:07:23;;;;;;;74.50;37.07;;;;;;;0.38;51.21;98324.06;5054510;28;20469;-71
2022/12/17 15:09:48;;;;;;;86.13;41.50;;;;;;;0.20;52.06;98325.66;5061185;28;20424;-70
2022/12/17 15:12:14;;;;;;;78.30;37.70;;;;;;;0.36;51.58;98326.72;5049303;28;20420;-70
2022/12/17 15:14:39;;;;;;;67.53;37.40;;;;;;;0.28;51.65;98331.34;5046698;28;20605;-69
2022/12/17 15:17:04;;;;;;;86.03;38.20;;;;;;;0.32;51.14;98327.75;5045375;28;20294;-70
2022/12/17 15:19:30;;;;;;;71.77;36.93;;;;;;;0.42;50.72;98333.38;5045992;28;20252;-70
2022/12/17 15:21:55;;;;;;;75.83;36.50;;;;;;;0.26;51.11;98323.66;5045068;28;20700;-70
2022/12/17 15:24:21;;;;;;;84.53;35.83;;;;;;;0.04;51.25;98331.38;5048666;28;20198;-69
2022/12/17 15:26:47;;;;;;;82.57;36.80;;;;;;;-0.12;51.81;98332.84;5049741;28;20672;-69
2022/12/17 15:29:12;;;;;;;83.53;34.13;;;;;;;-0.20;51.57;98328.84;5000981;28;20198;-70
2022/12/17 15:31:38;;;;;;;93.57;36.07;;;;;;;-0.26;52.19;98331.66;5050263;28;20447;-70
2022/12/17 15:34:03;;;;;;;114.90;37.47;;;;;;;-0.53;52.09;98339.50;5049240;28;20227;-70
2022/12/17 15:36:33;;;;;;;89.83;36.80;;;;;;;-0.85;52.54;98341.47;5054491;28;20574;-70
2022/12/17 15:38:58;;;;;;;90.30;36.00;;;;;;;-0.90;53.36;98345.09;5056565;28;20257;-70
2022/12/17 15:44:07;;;;;;;97.90;36.87;;;;;;;-0.89;52.79;98351.91;5049565;28;20183;-70
2022/12/17 15:46:33;;;;;;;85.50;36.77;;;;;;;-1.08;53.01;98355.94;5047453;28;20806;-70
2022/12/17 15:48:59;;;;;;;81.57;36.47;;;;;;;-1.39;53.63;98349.22;5043474;28;20253;-70
2022/12/17 15:51:24;;;;;;;86.17;36.50;;;;;;;-1.31;53.98;98356.69;5048564;28;22190;-70
2022/12/17 15:53:50;;;;;;;80.33;36.40;;;;;;;-1.39;53.83;98356.94;5047715;28;20246;-68
2022/12/17 15:56:22;;;;;;;83.23;37.30;;;;;;;-1.28;54.22;98361.75;5045668;28;20746;-69
2022/12/17 15:58:47;;;;;;;87.60;36.87;;;;;;;-1.57;54.46;98354.97;5050419;28;20262;-71
2022/12/17 16:01:13;;;;;;;85.27;37.90;;;;;;;-1.57;54.43;98370.41;5050310;28;20498;-70
2022/12/17 16:03:38;;;;;;;85.57;37.50;;;;;;;-1.66;54.24;98358.66;5051366;28;20179;-70
2022/12/17 16:06:04;;;;;;;84.83;36.37;;;;;;;-1.62;54.46;98367.97;5051750;28;20740;-70
2022/12/17 16:08:30;;;;;;;78.80;36.03;;;;;;;-1.65;54.02;98367.25;5042235;28;20281;-70
2022/12/17 16:10:55;;;;;;;92.07;37.23;;;;;;;-1.50;54.04;98371.06;5058171;28;20890;-69
2022/12/17 16:13:21;;;;;;;86.60;37.87;;;;;;;-1.40;53.23;98378.44;5051910;28;20205;-69
2022/12/17 16:15:55;;;;;;;86.13;38.83;;;;;;;-1.48;53.30;98377.81;5051749;28;20184;-69
2022/12/17 16:18:22;;;;;;;82.23;36.73;;;;;;;-1.46;54.13;98378.63;5030464;28;20720;-70
2022/12/17 16:20:47;;;;;;;87.60;38.40;;;;;;;-1.37;53.59;98377.50;5053244;28;20483;-70
2022/12/17 16:23:13;;;;;;;85.20;38.37;;;;;;;-1.36;53.64;98368.03;5053596;28;20431;-70
2022/12/17 16:25:38;;;;;;;97.63;41.77;;;;;;;-1.54;53.44;98378.03;5062120;28;20720;-71
2022/12/17 16:28:04;;;;;;;100.00;45.03;;;;;;;-1.62;53.34;98375.69;5055778;28;20226;-70
2022/12/17 16:30:29;;;;;;;100.07;45.20;;;;;;;-1.61;53.04;98368.81;5055388;28;20204;-70
2022/12/17 16:32:57;;;;;;;103.80;43.50;;;;;;;-1.49;52.94;98371.00;5057003;28;20711;-70
2022/12/17 16:35:23;;;;;;;100.90;44.50;;;;;;;-1.45;52.58;98372.59;5058509;28;20184;-69
2022/12/17 16:37:49;;;;;;;95.17;40.27;;;;;;;-1.35;52.46;98369.72;5061626;28;20450;-72
2022/12/17 16:40:14;;;;;;;83.57;37.30;;;;;;;-1.27;52.14;98373.72;5057904;28;20435;-72
2022/12/17 16:42:40;;;;;;;92.10;41.27;;;;;;;-1.39;51.72;98374.13;5055891;28;20213;-70
2022/12/17 16:45:06;;;;;;;82.20;38.90;;;;;;;-1.73;53.04;98370.88;5059291;28;20225;-68
2022/12/17 16:47:32;;;;;;;90.93;40.70;;;;;;;-1.65;53.14;98382.66;5053116;28;20208;-70
2022/12/17 16:49:57;;;;;;;89.83;38.37;;;;;;;-1.49;52.11;98381.28;5052044;28;20879;-69
2022/12/17 16:52:23;;;;;;;87.37;37.30;;;;;;;-1.55;51.97;98378.91;5061430;28;20182;-70
2022/12/17 16:54:48;;;;;;;85.00;40.10;;;;;;;-1.54;51.59;98372.88;5061781;28;20275;-70
2022/12/17 16:57:13;;;;;;;91.17;42.37;;;;;;;-1.56;51.41;98384.94;5059124;28;20203;-70
2022/12/17 16:59:39;;;;;;;86.00;38.70;;;;;;;-1.59;51.20;98387.59;5059942;28;20196;-71
2022/12/17 17:02:11;;;;;;;86.23;38.97;;;;;;;-1.62;50.93;98385.13;5053570;28;20214;-71
2022/12/17 17:04:36;;;;;;;94.10;43.87;;;;;;;-1.48;51.19;98388.09;5060474;28;20180;-70
2022/12/17 17:07:02;;;;;;;103.13;42.70;;;;;;;-1.58;50.82;98386.72;5055754;28;20805;-71
2022/12/17 17:09:27;;;;;;;95.27;42.07;;;;;;;-1.61;50.72;98385.09;5060414;28;20262;-71
2022/12/17 17:11:57;;;;;;;95.53;38.20;;;;;;;-1.66;51.82;98386.13;5066914;28;20213;-70
2022/12/17 17:14:23;;;;;;;99.43;43.50;;;;;;;-1.65;51.17;98386.06;5058848;28;20179;-69
2022/12/17 17:16:49;;;;;;;89.40;39.50;;;;;;;-1.62;51.38;98387.69;5059818;28;20552;-69
2022/12/17 17:19:15;;;;;;;81.50;38.67;;;;;;;-1.50;50.75;98397.59;5056516;28;20774;-71
2022/12/17 17:21:41;;;;;;;83.50;37.53;;;;;;;-1.42;51.08;98397.38;5054495;28;20200;-69
2022/12/17 17:24:11;;;;;;;84.20;37.03;;;;;;;-1.33;51.35;98399.66;5064529;28;20197;-71
2022/12/17 17:26:36;;;;;;;93.53;38.50;;;;;;;-1.39;51.53;98400.66;5054078;28;20520;-70
2022/12/17 17:29:03;;;;;;;89.47;39.27;;;;;;;-1.39;50.95;98405.00;5054241;28;20855;-69
2022/12/17 17:31:29;;;;;;;92.53;39.27;;;;;;;-1.48;49.90;98408.69;5052624;28;20541;-69
2022/12/17 17:33:54;;;;;;;91.97;39.10;;;;;;;-1.73;49.63;98406.03;5056821;28;20432;-71
2022/12/17 17:36:28;;;;;;;93.33;38.93;;;;;;;-1.73;50.05;98404.28;5054678;28;20187;-70
2022/12/17 17:38:57;;;;;;;97.73;42.27;;;;;;;-1.74;49.62;98410.31;5056845;28;20203;-69
2022/12/17 17:41:24;;;;;;;101.10;41.30;;;;;;;-1.71;50.02;98415.38;5053237;28;20461;-70
2022/12/17 17:44:01;;;;;;;91.93;39.30;;;;;;;-1.99;50.08;98417.06;5053506;28;20424;-70
2022/12/17 17:46:29;;;;;;;89.87;38.07;;;;;;;-1.89;49.65;98410.78;5055587;28;20437;-69
2022/12/17 17:48:56;;;;;;;86.13;37.57;;;;;;;-1.93;50.38;98414.34;5057966;28;20900;-70
2022/12/17 17:51:24;;;;;;;85.93;38.60;;;;;;;-1.87;49.87;98411.56;5056503;28;20417;-69
2022/12/17 17:53:51;;;;;;;113.90;46.87;;;;;;;-1.87;50.09;98414.13;5059602;28;20441;-71
2022/12/17 17:56:22;;;;;;;109.43;45.80;;;;;;;-2.17;50.74;98425.25;5057552;28;20429;-70
2022/12/17 17:58:54;;;;;;;90.97;39.40;;;;;;;-2.25;51.10;98424.63;5058812;28;20439;-69
2022/12/17 18:01:22;;;;;;;87.33;36.60;;;;;;;-2.13;50.43;98418.28;5054116;28;20814;-71
2022/12/17 18:03:48;;;;;;;95.57;39.80;;;;;;;-2.03;49.94;98424.88;5056845;28;20445;-70
2022/12/17 18:06:14;;;;;;;131.07;49.90;;;;;;;-2.11;50.02;98418.28;5055177;28;20433;-69
2022/12/17 18:08:40;;;;;;;102.93;44.87;;;;;;;-2.73;52.34;98428.47;5057153;28;20203;-72
2022/12/17 18:11:10;;;;;;;105.30;41.80;;;;;;;-2.75;52.77;98421.69;5053362;28;20829;-69
2022/12/17 18:13:53;;;;;;;104.90;44.67;;;;;;;-2.48;52.24;98436.38;5052290;28;20983;-69
2022/12/17 18:16:22;;;;;;;129.33;51.67;;;;;;;-2.19;51.27;98437.28;5051121;28;20438;-69
2022/12/17 18:18:48;;;;;;;103.03;39.50;;;;;;;-2.11;51.27;98433.69;5055651;28;20444;-71
2022/12/17 18:21:16;;;;;;;103.53;41.80;;;;;;;-2.06;51.52;98430.09;5060208;28;20537;-71
2022/12/17 18:23:42;;;;;;;103.47;43.80;;;;;;;-1.99;51.51;98428.19;5064511;28;20221;-69
2022/12/17 18:26:08;;;;;;;103.27;44.27;;;;;;;-2.04;51.48;98428.34;5055155;28;20465;-69
2022/12/17 18:28:34;;;;;;;74.93;35.00;;;;;;;-2.02;50.75;98426.53;5052348;28;20235;-70
2022/12/17 18:31:11;;;;;;;82.20;36.60;;;;;;;-1.93;51.97;98429.75;5054870;28;21221;-70
2022/12/17 18:33:39;;;;;;;79.80;33.80;;;;;;;-2.13;52.93;98420.88;5050439;28;20447;-70
2022/12/17 18:36:15;;;;;;;86.17;37.27;;;;;;;-1.96;53.39;98428.13;5060319;28;20438;-70
2022/12/17 18:38:41;;;;;;;93.68;38.70;;;;;;;-1.92;53.55;98426.31;5052281;28;21052;-70
2022/12/17 18:43:57;;;;;;;91.10;39.13;;;;;;;-1.86;54.20;98426.97;5053566;28;20590;-69
2022/12/17 18:46:23;;;;;;;85.33;35.67;;;;;;;-1.83;54.17;98441.44;5053168;28;20453;-70
2022/12/17 18:48:51;;;;;;;75.77;32.37;;;;;;;-1.96;53.92;98440.13;5057047;28;20429;-70
2022/12/17 18:51:17;;;;;;;85.33;34.63;;;;;;;-1.90;54.61;98440.78;5051048;28;20172;-70
2022/12/17 18:53:43;;;;;;;95.88;41.38;;;;;;;-2.21;55.23;98448.50;5057468;28;20964;-70
2022/12/17 18:56:09;;;;;;;104.50;39.07;;;;;;;-2.24;54.79;98454.59;5056405;28;20253;-71
2022/12/17 18:58:36;;;;;;;75.40;32.77;;;;;;;-2.14;55.07;98454.31;5057534;28;20203;-70
2022/12/17 19:01:02;;;;;;;80.77;35.60;;;;;;;-2.12;55.10;98465.41;5054983;28;20449;-72
2022/12/17 19:03:27;;;;;;;86.03;36.37;;;;;;;-2.01;54.80;98468.50;5057995;28;20421;-71
2022/12/17 19:05:53;;;;;;;83.57;35.27;;;;;;;-2.10;55.21;98464.47;5053241;28;20461;-70
2022/12/17 19:08:18;;;;;;;103.20;34.93;;;;;;;-2.23;55.19;98463.13;5055723;28;20203;-71
2022/12/17 19:10:43;;;;;;;89.70;35.03;;;;;;;-2.21;55.85;98467.34;5050436;28;20740;-70
2022/12/17 19:13:09;;;;;;;95.30;38.47;;;;;;;-2.34;55.92;98463.41;5051641;28;20222;-69
2022/12/17 19:15:34;;;;;;;101.33;36.70;;;;;;;-2.08;55.91;98462.69;5053086;28;20246;-72
2022/12/17 19:18:00;;;;;;;77.93;34.90;;;;;;;-2.19;55.33;98469.88;5053991;28;20222;-70
2022/12/17 19:20:25;;;;;;;75.93;33.37;;;;;;;-2.18;55.43;98461.28;5056216;28;20543;-72
2022/12/17 19:22:51;;;;;;;80.70;34.83;;;;;;;-2.21;55.53;98467.34;5054610;28;20188;-71
2022/12/17 19:25:16;;;;;;;78.37;35.70;;;;;;;-2.59;56.64;98463.22;5057787;28;20184;-70
2022/12/17 19:27:42;;;;;;;83.67;33.77;;;;;;;-2.43;56.28;98484.19;5035501;28;20199;-71
2022/12/17 19:30:08;;;;;;;76.97;34.10;;;;;;;-2.37;55.68;98484.03;5054902;28;20275;-70
2022/12/17 19:32:33;;;;;;;87.40;36.17;;;;;;;-2.53;56.24;98486.16;5054853;28;20199;-69
2022/12/17 19:34:59;;;;;;;82.00;35.77;;;;;;;-2.55;56.52;98493.06;5059448;28;20433;-69
2022/12/17 19:37:24;;;;;;;100.40;42.10;;;;;;;-2.65;57.08;98490.75;5050895;28;20203;-71
2022/12/17 19:39:50;;;;;;;100.70;40.60;;;;;;;-2.51;56.72;98502.34;5045759;28;20187;-72
2022/12/17 19:42:24;;;;;;;82.47;35.47;;;;;;;-2.68;56.89;98502.78;5050143;28;20756;-71
2022/12/17 19:44:51;;;;;;;83.97;32.73;;;;;;;-2.51;56.02;98504.91;5044027;28;20629;-71
2022/12/17 19:47:17;;;;;;;75.20;34.53;;;;;;;-2.66;56.12;98512.16;5055362;28;21186;-71
2022/12/17 19:49:42;;;;;;;79.93;33.87;;;;;;;-2.70;57.34;98510.53;5053657;28;20417;-71
2022/12/17 19:52:08;;;;;;;81.80;35.67;;;;;;;-2.45;56.49;98502.22;5054221;28;20424;-70
2022/12/17 19:54:34;;;;;;;81.33;37.67;;;;;;;-2.31;56.02;98501.84;5054895;28;20532;-71
2022/12/17 19:56:59;;;;;;;82.47;34.57;;;;;;;-2.21;55.46;98505.88;5054724;28;20238;-71
2022/12/17 19:59:25;;;;;;;79.93;35.40;;;;;;;-2.25;54.38;98503.41;5053568;28;20501;-71
2022/12/17 20:01:50;;;;;;;80.33;36.00;;;;;;;-2.34;54.83;98496.81;5049084;28;20200;-70
2022/12/17 20:04:16;;;;;;;81.60;35.80;;;;;;;-2.37;54.37;98486.63;5044951;28;20190;-72
2022/12/17 20:06:42;;;;;;;89.23;40.43;;;;;;;-2.28;54.05;98498.38;5060217;28;20251;-70
2022/12/17 20:09:08;;;;;;;94.83;41.50;;;;;;;-2.40;54.02;98496.97;5055619;28;20197;-70
2022/12/17 20:11:33;;;;;;;76.70;36.20;;;;;;;-2.40;53.73;98495.25;5062684;28;20425;-71
2022/12/17 20:14:19;;;;;;;99.03;46.20;;;;;;;-2.57;54.68;98499.97;5053631;28;20275;-69
2022/12/17 20:16:47;;;;;;;78.60;35.03;;;;;;;-2.63;54.69;98491.50;5051694;28;20657;-71
2022/12/17 20:19:18;;;;;;;76.40;33.57;;;;;;;-2.62;54.16;98493.19;5053796;28;20426;-72
2022/12/17 20:21:43;;;;;;;80.87;35.80;;;;;;;-2.66;54.40;98490.75;5055607;28;20538;-72
2022/12/17 20:24:10;;;;;;;86.37;39.00;;;;;;;-2.86;54.46;98494.66;5064068;28;20816;-70
2022/12/17 20:26:35;;;;;;;88.33;38.40;;;;;;;-2.62;54.34;98492.38;5055270;28;20633;-72
2022/12/17 20:29:01;;;;;;;76.30;35.40;;;;;;;-2.81;54.51;98492.81;5059499;28;20496;-71
2022/12/17 20:31:27;;;;;;;83.53;36.97;;;;;;;-3.14;54.66;98500.44;5053996;28;20185;-71
2022/12/17 20:33:52;;;;;;;93.17;39.20;;;;;;;-2.91;54.74;98496.47;5063160;28;20222;-72
2022/12/17 20:36:19;;;;;;;80.10;34.50;;;;;;;-2.75;53.83;98491.00;5062188;28;20767;-71
2022/12/17 20:38:45;;;;;;;87.70;36.27;;;;;;;-2.57;53.49;98484.56;5057293;28;20194;-70
2022/12/17 20:41:16;;;;;;;82.47;36.80;;;;;;;-2.47;52.71;98492.00;5058690;28;20845;-73
2022/12/17 20:43:42;;;;;;;85.40;37.30;;;;;;;-2.43;52.30;98479.91;5054146;28;20179;-70
2022/12/17 20:46:08;;;;;;;91.27;39.83;;;;;;;-2.37;52.11;98482.31;5062472;28;20798;-72
2022/12/17 20:48:35;;;;;;;92.17;38.50;;;;;;;-2.34;51.96;98481.41;5053580;28;20235;-71
2022/12/17 20:51:08;;;;;;;82.07;39.17;;;;;;;-2.37;51.76;98481.47;5053384;28;20416;-69
2022/12/17 20:53:34;;;;;;;78.33;35.57;;;;;;;-2.38;51.89;98480.63;5047587;28;20454;-70
2022/12/17 20:56:09;;;;;;;78.87;35.30;;;;;;;-2.35;51.84;98485.69;5053478;28;20418;-72
2022/12/17 20:58:35;;;;;;;75.20;36.20;;;;;;;-2.28;51.62;98490.66;5048308;28;20894;-69
2022/12/17 21:01:05;;;;;;;78.53;35.60;;;;;;;-2.36;51.06;98494.25;5050763;28;20590;-70
2022/12/17 21:03:31;;;;;;;79.30;34.80;;;;;;;-2.40;50.99;98492.69;5048262;28;20420;-71
2022/12/17 21:06:10;;;;;;;80.67;36.67;;;;;;;-2.44;50.70;98501.34;5054682;28;20933;-72
2022/12/17 21:08:36;;;;;;;74.23;33.60;;;;;;;-2.41;50.68;98495.28;5046747;28;20198;-71
2022/12/17 21:11:01;;;;;;;81.43;37.23;;;;;;;-2.52;50.42;98495.56;5054020;28;20478;-70
2022/12/17 21:13:30;;;;;;;94.70;38.70;;;;;;;-2.69;50.01;98486.56;5056658;28;20475;-69
2022/12/17 21:16:00;;;;;;;70.67;34.10;;;;;;;-2.78;49.78;98482.47;5057431;28;20183;-71
2022/12/17 21:18:27;;;;;;;71.90;34.20;;;;;;;-2.80;50.17;98493.69;5058571;28;20520;-70
2022/12/17 21:20:55;;;;;;;69.40;34.50;;;;;;;-2.73;49.82;98484.94;5053366;28;20442;-72
2022/12/17 21:23:20;;;;;;;68.13;33.03;;;;;;;-2.78;50.13;98484.22;5059916;28;20542;-72
2022/12/17 21:25:46;;;;;;;76.63;34.27;;;;;;;-2.83;50.26;98479.16;5060321;28;20507;-73
2022/12/17 21:28:11;;;;;;;81.13;43.23;;;;;;;-2.87;50.31;98476.72;5051490;28;20815;-72
2022/12/17 21:30:38;;;;;;;77.10;38.20;;;;;;;-2.86;50.03;98480.97;5063500;28;20264;-70
2022/12/17 21:33:03;;;;;;;91.37;40.00;;;;;;;-2.73;49.48;98486.66;5056501;28;20218;-72
2022/12/17 21:35:29;;;;;;;77.47;37.20;;;;;;;-2.74;49.38;98490.13;5057012;28;20417;-71
2022/12/17 21:37:54;;;;;;;88.60;38.13;;;;;;;-2.91;49.32;98493.09;5059043;28;20293;-72
2022/12/17 21:40:19;;;;;;;76.97;33.20;;;;;;;-2.89;49.53;98499.88;5056844;28;20289;-75
2022/12/17 21:43:00;;;;;;;73.23;32.70;;;;;;;-3.17;50.20;98495.38;5053481;28;21030;-71
2022/12/17 21:45:26;;;;;;;70.17;33.03;;;;;;;-3.09;49.46;98495.19;5062962;28;20225;-71
2022/12/17 21:47:51;;;;;;;75.50;36.03;;;;;;;-3.13;49.54;98489.31;5057543;28;20468;-71
2022/12/17 21:50:16;;;;;;;69.87;31.77;;;;;;;-3.13;49.41;98481.59;5052373;28;20179;-71
2022/12/17 21:52:42;;;;;;;72.90;33.67;;;;;;;-3.09;49.61;98492.63;5052350;28;20183;-70
2022/12/17 21:55:07;;;;;;;86.17;35.40;;;;;;;-3.05;49.13;98494.25;5053832;28;20187;-71
2022/12/17 21:57:33;;;;;;;76.90;32.33;;;;;;;-3.09;50.06;98503.72;5056362;28;20199;-70
2022/12/17 21:59:58;;;;;;;70.03;31.60;;;;;;;-3.04;49.66;98501.06;5053687;28;20637;-70
2022/12/17 22:02:24;;;;;;;70.17;31.40;;;;;;;-2.98;49.59;98498.34;5055101;28;20669;-70
2022/12/17 22:04:49;;;;;;;79.33;34.87;;;;;;;-2.97;49.15;98502.59;5059452;28;20265;-71
2022/12/17 22:07:15;;;;;;;78.07;33.00;;;;;;;-2.97;48.97;98501.78;5051735;28;20290;-71
2022/12/17 22:09:40;;;;;;;67.20;32.20;;;;;;;-3.04;48.83;98513.03;5061205;28;20552;-70
2022/12/17 22:14:50;;;;;;;62.47;30.27;;;;;;;-3.10;48.83;98517.47;5055491;28;20277;-70
2022/12/17 22:17:15;;;;;;;67.30;30.67;;;;;;;-3.28;49.04;98517.84;5054077;28;20539;-71
2022/12/17 22:19:40;;;;;;;63.47;30.83;;;;;;;-3.25;49.33;98512.66;5051694;28;20584;-69
2022/12/17 22:22:06;;;;;;;65.80;29.77;;;;;;;-3.21;48.73;98514.25;5046226;28;20220;-69
2022/12/17 22:24:31;;;;;;;69.87;31.20;;;;;;;-3.24;48.94;98512.63;5051200;28;20583;-70
2022/12/17 22:26:58;;;;;;;72.97;31.00;;;;;;;-3.36;49.79;98510.31;5048866;28;20188;-71
2022/12/17 22:34:54;;;;;;;61.60;28.20;;;;;;;-3.15;49.57;98513.31;5050504;28;21229;-70
2022/12/17 22:37:20;;;;;;;77.33;33.97;;;;;;;-3.19;49.11;98512.50;5050363;28;20532;-72
2022/12/17 22:39:45;;;;;;;74.73;33.37;;;;;;;-3.15;49.20;98516.69;5051860;28;20345;-73
2022/12/17 22:44:54;;;;;;;69.20;32.17;;;;;;;-3.16;48.96;98514.19;5057894;28;20255;-73
2022/12/17 22:47:20;;;;;;;70.57;30.60;;;;;;;-3.43;49.26;98514.75;5051259;28;20562;-71
2022/12/17 22:49:45;;;;;;;63.67;29.17;;;;;;;-3.73;49.85;98516.22;5057789;28;20187;-71
2022/12/17 22:52:11;;;;;;;70.07;28.70;;;;;;;-3.53;49.26;98507.28;5070209;28;20183;-71
2022/12/17 22:54:36;;;;;;;62.37;30.13;;;;;;;-3.48;48.74;98510.59;5062911;28;20185;-71
2022/12/17 22:57:02;;;;;;;60.27;28.93;;;;;;;-3.57;48.33;98511.63;5073297;28;20174;-71
2022/12/17 22:59:27;;;;;;;60.73;30.23;;;;;;;-3.54;49.27;98511.56;5074090;28;20195;-72
2022/12/17 23:01:53;;;;;;;59.97;29.17;;;;;;;-3.49;48.98;98509.75;5080382;28;20225;-72
2022/12/17 23:04:18;;;;;;;60.60;28.90;;;;;;;-3.39;48.75;98505.25;5082444;28;20198;-73
2022/12/17 23:06:44;;;;;;;62.77;29.20;;;;;;;-3.36;48.59;98504.38;5074774;28;20197;-74
2022/12/17 23:09:11;;;;;;;64.23;28.70;;;;;;;-3.48;48.70;98501.19;5073345;28;20190;-71
2022/12/17 23:11:36;;;;;;;59.67;29.53;;;;;;;-3.40;48.88;98498.44;5069563;28;20469;-72
2022/12/17 23:14:02;;;;;;;61.47;28.97;;;;;;;-3.43;48.92;98495.97;5082214;28;20464;-73
2022/12/17 23:16:27;;;;;;;62.03;28.10;;;;;;;-3.47;49.28;98512.28;5065710;28;20170;-73
2022/12/17 23:18:54;;;;;;;62.50;28.10;;;;;;;-3.51;49.46;98508.94;5050975;28;20210;-71
2022/12/17 23:21:24;;;;;;;65.37;30.27;;;;;;;-3.46;49.32;98516.53;5050868;28;20231;-71
2022/12/17 23:23:54;;;;;;;65.77;30.03;;;;;;;-3.40;48.86;98529.22;5063176;28;20512;-71
2022/12/17 23:26:22;;;;;;;62.63;29.23;;;;;;;-3.51;48.66;98528.59;5058269;28;20429;-76
2022/12/17 23:28:51;;;;;;;64.60;30.67;;;;;;;-3.69;49.53;98523.00;5056767;28;20480;-71
2022/12/17 23:31:18;;;;;;;60.73;29.23;;;;;;;-3.80;49.64;98518.06;5051908;28;20503;-72
2022/12/17 23:33:45;;;;;;;64.23;29.43;;;;;;;-3.89;49.87;98521.66;5052849;28;20429;-71
2022/12/17 23:36:16;;;;;;;71.53;31.50;;;;;;;-3.78;50.32;98512.94;5054645;28;20437;-71
2022/12/17 23:38:43;;;;;;;60.27;29.20;;;;;;;-3.73;49.83;98513.66;5055138;28;20448;-74
2022/12/17 23:41:11;;;;;;;70.03;30.67;;;;;;;-3.77;50.12;98515.44;5057042;28;20550;-70
2022/12/17 23:43:37;;;;;;;59.70;28.77;;;;;;;-3.76;50.09;98516.28;5052238;28;21009;-71
2022/12/17 23:46:03;;;;;;;72.30;30.53;;;;;;;-3.72;49.76;98515.34;5057528;28;20431;-71
2022/12/17 23:48:30;;;;;;;61.43;28.33;;;;;;;-3.89;49.78;98513.13;5050697;28;20971;-71
2022/12/17 23:50:58;;;;;;;65.23;30.47;;;;;;;-3.76;49.37;98522.25;5056659;28;21196;-72
2022/12/17 23:53:26;;;;;;;63.33;28.70;;;;;;;-3.75;49.65;98512.84;5058123;28;20420;-71
2022/12/17 23:55:52;;;;;;;68.13;30.23;;;;;;;-3.74;49.48;98512.84;5052418;28;20428;-69
2022/12/17 23:58:17;;;;;;;63.43;28.37;;;;;;;-3.62;50.15;98519.41;5046021;28;20445;-70
